Time;durP1;ratioP1;P1;durP2;ratioP2;P2;SDS_P1;SDS_P2;PMS_P1;PMS_P2;Temp;Humidity;BMP_temperature;BMP_pressure;BME280_temperature;BME280_humidity;BME280_pressure;Samples;Min_cycle;Max_cycle;Signal;HPM_P1;HPM_P2
2023/10/28 00:02:14;;;;;;;22.95;8.82;;;9.20;99.90;;;;;;5088599;28;20097;-34
2023/10/28 00:04:40;;;;;;;20.08;8.48;;;9.20;99.90;;;;;;5088136;28;20047;-35
2023/10/28 00:07:06;;;;;;;22.85;8.65;;;9.20;99.90;;;;;;5088467;28;20072;-34
2023/10/28 00:09:32;;;;;;;22.70;9.13;;;9.20;99.90;;;;;;5088627;28;20060;-34
2023/10/28 00:11:57;;;;;;;21.27;8.80;;;9.20;99.90;;;;;;5088304;28;20489;-34
2023/10/28 00:14:23;;;;;;;17.55;8.35;;;9.20;99.90;;;;;;5088504;28;20078;-34
2023/10/28 00:16:49;;;;;;;16.67;7.65;;;9.20;99.90;;;;;;5090422;28;20071;-35
2023/10/28 00:19:16;;;;;;;15.48;7.40;;;9.20;99.90;;;;;;5088762;28;20452;-34
2023/10/28 00:21:42;;;;;;;18.85;7.38;;;9.20;99.90;;;;;;5087506;28;20529;-35
2023/10/28 00:24:10;;;;;;;18.63;7.95;;;9.20;99.90;;;;;;5088606;28;20052;-35
2023/10/28 00:26:35;;;;;;;20.73;8.30;;;9.10;99.90;;;;;;5068360;28;20055;-35
2023/10/28 00:29:01;;;;;;;18.33;7.72;;;9.20;99.90;;;;;;5083969;28;20056;-34
2023/10/28 00:31:28;;;;;;;13.77;7.20;;;9.10;99.90;;;;;;5069220;28;20068;-34
2023/10/28 00:33:54;;;;;;;16.30;7.20;;;9.10;99.90;;;;;;5070558;28;20047;-34
2023/10/28 00:36:19;;;;;;;13.82;6.90;;;9.10;99.90;;;;;;5065780;28;20048;-34
2023/10/28 00:38:45;;;;;;;23.17;7.47;;;9.10;99.90;;;;;;5075052;28;20101;-35
2023/10/28 00:41:11;;;;;;;12.52;6.75;;;9.10;99.90;;;;;;5077927;28;20064;-34
2023/10/28 00:43:37;;;;;;;12.02;5.65;;;9.10;99.90;;;;;;5086414;28;20057;-34
2023/10/28 00:46:07;;;;;;;11.15;5.82;;;9.10;99.90;;;;;;5052418;28;20064;-34
2023/10/28 00:48:33;;;;;;;17.80;6.85;;;9.10;99.90;;;;;;5074963;28;20055;-35
2023/10/28 00:50:59;;;;;;;16.50;6.78;;;9.00;99.90;;;;;;5076154;28;20063;-34
2023/10/28 00:53:25;;;;;;;11.88;6.15;;;9.10;99.90;;;;;;5092350;28;20044;-34
2023/10/28 00:55:51;;;;;;;12.98;6.22;;;9.00;99.90;;;;;;5090624;28;20052;-34
2023/10/28 00:58:20;;;;;;;15.57;6.35;;;9.00;99.90;;;;;;5086681;28;20051;-35
2023/10/28 01:00:47;;;;;;;13.43;6.00;;;9.00;99.90;;;;;;5091020;28;20127;-34
2023/10/28 01:03:14;;;;;;;15.02;6.70;;;9.00;99.90;;;;;;5092185;28;20511;-35
2023/10/28 01:05:40;;;;;;;14.35;6.93;;;9.00;99.90;;;;;;5065391;28;20139;-34
2023/10/28 01:08:06;;;;;;;11.73;5.85;;;9.00;99.90;;;;;;5091225;28;20056;-34
2023/10/28 01:10:36;;;;;;;12.90;6.35;;;9.00;99.90;;;;;;5092103;28;20040;-34
2023/10/28 01:13:06;;;;;;;15.30;7.18;;;9.00;99.90;;;;;;5091041;28;20044;-34
2023/10/28 01:15:31;;;;;;;15.55;7.35;;;9.00;99.90;;;;;;5088842;28;20457;-34
2023/10/28 01:17:57;;;;;;;12.25;5.80;;;9.00;99.90;;;;;;5078583;28;20135;-34
2023/10/28 01:20:23;;;;;;;15.80;6.72;;;9.00;99.90;;;;;;5091299;28;20159;-34
2023/10/28 01:22:48;;;;;;;12.45;6.80;;;9.00;99.90;;;;;;5079070;28;20048;-34
2023/10/28 01:25:14;;;;;;;13.77;6.07;;;9.00;99.90;;;;;;5078016;28;20502;-34
2023/10/28 01:27:43;;;;;;;15.38;6.95;;;9.00;99.90;;;;;;5088993;28;20181;-35
2023/10/28 01:30:13;;;;;;;16.60;6.68;;;9.00;99.90;;;;;;5090717;28;20506;-34
2023/10/28 01:32:43;;;;;;;15.00;6.70;;;8.90;99.90;;;;;;5091846;28;20133;-35
2023/10/28 01:35:10;;;;;;;14.18;6.65;;;8.90;99.90;;;;;;5088869;28;20040;-34
2023/10/28 01:37:37;;;;;;;14.70;6.90;;;8.90;99.90;;;;;;5085997;28;20414;-35
2023/10/28 01:40:09;;;;;;;14.38;7.47;;;8.90;99.90;;;;;;5091028;28;20486;-34
2023/10/28 01:42:35;;;;;;;16.17;7.30;;;8.90;99.90;;;;;;5090918;28;20052;-34
2023/10/28 01:45:00;;;;;;;12.98;6.88;;;8.90;99.90;;;;;;5084782;28;20540;-34
2023/10/28 01:47:26;;;;;;;12.80;6.32;;;8.80;99.90;;;;;;5091307;28;20177;-34
2023/10/28 01:49:52;;;;;;;13.52;5.60;;;8.80;99.90;;;;;;5070805;28;20052;-34
2023/10/28 01:52:18;;;;;;;11.13;5.75;;;8.80;99.90;;;;;;5062885;28;20060;-34
2023/10/28 01:54:44;;;;;;;12.23;6.18;;;8.80;99.90;;;;;;5084085;28;20056;-34
2023/10/28 01:57:10;;;;;;;14.07;6.05;;;8.80;99.90;;;;;;5086280;28;20395;-35
2023/10/28 01:59:37;;;;;;;15.93;6.45;;;8.80;99.90;;;;;;5087673;28;20044;-34
2023/10/28 02:02:03;;;;;;;11.50;6.28;;;8.80;99.90;;;;;;5090428;28;20048;-34
2023/10/28 02:04:33;;;;;;;11.38;6.10;;;8.70;99.90;;;;;;5087743;28;20085;-34
2023/10/28 02:06:59;;;;;;;14.65;5.78;;;8.70;99.90;;;;;;5085052;28;20547;-34
2023/10/28 02:09:26;;;;;;;12.13;6.30;;;8.70;99.90;;;;;;5090894;28;20056;-34
2023/10/28 02:11:52;;;;;;;17.67;6.35;;;8.70;99.90;;;;;;5078766;28;20101;-36
2023/10/28 02:14:19;;;;;;;10.57;5.57;;;8.70;99.90;;;;;;5069561;28;20136;-34
2023/10/28 02:16:45;;;;;;;10.52;5.07;;;8.70;99.90;;;;;;5082980;28;20059;-34
2023/10/28 02:19:10;;;;;;;10.38;5.65;;;8.70;99.90;;;;;;5074771;28;20051;-34
2023/10/28 02:21:36;;;;;;;11.40;6.35;;;8.70;99.90;;;;;;5086785;28;20417;-34
2023/10/28 02:24:04;;;;;;;11.60;5.25;;;8.70;99.90;;;;;;5085184;28;20044;-35
2023/10/28 02:26:30;;;;;;;11.82;5.57;;;8.70;99.90;;;;;;5068207;28;20076;-35
2023/10/28 02:28:56;;;;;;;14.68;6.50;;;8.70;99.90;;;;;;5053093;28;20080;-34
2023/10/28 02:31:22;;;;;;;12.55;6.00;;;8.70;99.90;;;;;;5064033;28;20057;-35
2023/10/28 02:33:48;;;;;;;10.45;5.72;;;8.70;99.90;;;;;;5048621;28;20055;-35
2023/10/28 02:36:13;;;;;;;11.05;5.45;;;8.70;99.90;;;;;;5069022;28;20082;-34
2023/10/28 02:38:40;;;;;;;14.38;5.70;;;8.80;99.90;;;;;;5069776;28;20072;-36
2023/10/28 02:41:06;;;;;;;10.93;5.38;;;8.80;99.90;;;;;;5066679;28;20102;-35
2023/10/28 02:43:35;;;;;;;11.57;5.78;;;8.80;99.90;;;;;;5065628;28;20464;-34
2023/10/28 02:46:01;;;;;;;17.33;5.82;;;8.90;99.90;;;;;;5068555;28;20521;-34
2023/10/28 02:48:27;;;;;;;14.50;5.38;;;8.90;99.90;;;;;;5068835;28;20087;-35
2023/10/28 02:50:53;;;;;;;11.65;4.72;;;8.90;99.90;;;;;;5050208;28;20494;-34
2023/10/28 02:53:19;;;;;;;18.08;6.60;;;9.00;99.90;;;;;;5069607;28;20052;-34
2023/10/28 02:55:44;;;;;;;11.77;5.72;;;9.00;99.90;;;;;;5069584;28;20048;-34
2023/10/28 02:58:10;;;;;;;9.45;5.50;;;9.00;99.90;;;;;;5050098;28;20080;-34
2023/10/28 03:00:36;;;;;;;13.27;5.82;;;9.00;99.90;;;;;;5051026;28;20457;-34
2023/10/28 03:03:04;;;;;;;14.90;6.85;;;9.10;99.90;;;;;;5068640;28;20052;-34
2023/10/28 03:05:30;;;;;;;15.35;5.65;;;9.10;99.90;;;;;;5068795;28;20044;-35
2023/10/28 03:07:56;;;;;;;15.63;6.22;;;9.10;99.90;;;;;;5067839;28;20059;-35
2023/10/28 03:10:21;;;;;;;17.73;5.90;;;9.10;99.90;;;;;;5068811;28;20041;-35
2023/10/28 03:12:47;;;;;;;16.20;5.85;;;9.10;99.90;;;;;;5069093;28;20060;-34
2023/10/28 03:15:13;;;;;;;11.27;5.60;;;9.10;99.90;;;;;;5049666;28;20410;-34
2023/10/28 03:17:39;;;;;;;11.82;5.38;;;9.10;99.90;;;;;;5067182;28;20036;-34
2023/10/28 03:20:10;;;;;;;16.33;5.53;;;9.10;99.90;;;;;;5067377;28;20052;-35
2023/10/28 03:22:36;;;;;;;15.05;6.72;;;9.10;99.90;;;;;;5068913;28;20102;-34
2023/10/28 03:25:03;;;;;;;11.85;5.90;;;9.10;99.90;;;;;;5063943;28;20044;-41
2023/10/28 03:27:29;;;;;;;10.52;5.95;;;9.10;99.90;;;;;;5067147;28;20070;-35
2023/10/28 03:29:55;;;;;;;16.83;6.35;;;9.20;99.90;;;;;;5069112;28;20064;-35
2023/10/28 03:32:21;;;;;;;12.90;5.82;;;9.20;99.90;;;;;;5068152;28;20056;-35
2023/10/28 03:34:47;;;;;;;10.88;5.80;;;9.20;99.90;;;;;;5051141;28;20044;-34
2023/10/28 03:37:13;;;;;;;11.35;5.85;;;9.20;99.90;;;;;;5050348;28;20087;-34
2023/10/28 03:39:38;;;;;;;16.70;5.25;;;9.20;99.90;;;;;;5050988;28;20162;-34
2023/10/28 03:42:07;;;;;;;10.38;4.97;;;9.20;99.90;;;;;;5068120;28;20064;-34
2023/10/28 03:44:33;;;;;;;9.73;5.63;;;9.20;99.90;;;;;;5068519;28;20502;-34
2023/10/28 03:46:59;;;;;;;12.88;5.10;;;9.20;99.90;;;;;;5068232;28;20091;-34
2023/10/28 03:49:25;;;;;;;17.38;6.15;;;9.20;99.90;;;;;;5067728;28;20044;-34
2023/10/28 03:51:51;;;;;;;14.70;6.65;;;9.20;99.90;;;;;;5068513;28;20056;-34
2023/10/28 03:54:16;;;;;;;11.93;5.40;;;9.20;99.90;;;;;;5068096;28;20052;-34
2023/10/28 03:56:42;;;;;;;13.25;6.57;;;9.20;99.90;;;;;;5068782;28;20045;-34
2023/10/28 03:59:07;;;;;;;11.18;5.40;;;9.20;99.90;;;;;;5068013;28;20057;-34
2023/10/28 04:01:33;;;;;;;14.50;6.38;;;9.20;99.90;;;;;;5068317;28;20044;-34
2023/10/28 04:03:59;;;;;;;14.93;5.38;;;9.20;99.90;;;;;;5068733;28;20080;-35
2023/10/28 04:06:25;;;;;;;18.38;6.47;;;9.20;99.90;;;;;;5068470;28;20048;-34
2023/10/28 04:08:51;;;;;;;12.43;5.65;;;9.20;99.90;;;;;;5050350;28;20509;-34
2023/10/28 04:11:16;;;;;;;14.20;5.85;;;9.20;99.90;;;;;;5068058;28;20056;-35
2023/10/28 04:13:42;;;;;;;16.40;6.35;;;9.20;99.90;;;;;;5068233;28;20074;-34
2023/10/28 04:16:08;;;;;;;18.35;7.13;;;9.30;99.90;;;;;;5069444;28;20057;-35
2023/10/28 04:18:34;;;;;;;20.33;6.07;;;9.30;99.90;;;;;;5072042;28;20040;-39
2023/10/28 04:21:00;;;;;;;16.25;5.82;;;9.30;99.90;;;;;;5054625;28;20056;-34
2023/10/28 04:23:26;;;;;;;16.17;6.88;;;9.30;99.90;;;;;;5072212;28;20134;-35
2023/10/28 04:25:52;;;;;;;10.25;5.25;;;9.30;99.90;;;;;;5081462;28;20505;-35
2023/10/28 04:28:18;;;;;;;12.77;5.38;;;9.40;99.90;;;;;;5087768;28;20048;-35
2023/10/28 04:30:53;;;;;;;26.45;7.57;;;9.40;99.90;;;;;;5092332;28;20105;-35
2023/10/28 04:33:19;;;;;;;13.15;6.05;;;9.40;99.90;;;;;;5077870;28;20052;-35
2023/10/28 04:35:44;;;;;;;13.30;5.75;;;9.40;99.90;;;;;;5089122;28;20059;-34
2023/10/28 04:38:10;;;;;;;13.10;5.35;;;9.40;99.90;;;;;;5076551;28;20105;-34
2023/10/28 04:40:37;;;;;;;11.95;6.13;;;9.40;99.90;;;;;;5084884;28;20074;-34
2023/10/28 04:43:04;;;;;;;19.27;6.47;;;9.40;99.90;;;;;;5084285;28;20071;-34
2023/10/28 04:45:31;;;;;;;15.45;5.55;;;9.40;99.90;;;;;;5091975;28;20044;-34
2023/10/28 04:47:56;;;;;;;16.00;6.28;;;9.40;99.90;;;;;;5081908;28;20083;-34
2023/10/28 04:50:22;;;;;;;10.05;4.95;;;9.40;99.90;;;;;;5086413;28;20080;-34
2023/10/28 04:52:48;;;;;;;21.83;6.57;;;9.40;99.90;;;;;;5073659;28;20044;-34
2023/10/28 04:55:13;;;;;;;17.30;6.32;;;9.40;99.90;;;;;;5091383;28;20453;-35
2023/10/28 04:57:40;;;;;;;13.93;5.53;;;9.50;99.90;;;;;;5085371;28;20056;-35
2023/10/28 05:00:07;;;;;;;15.60;6.60;;;9.50;99.90;;;;;;5069328;28;20083;-34
2023/10/28 05:02:36;;;;;;;14.10;5.90;;;9.50;99.90;;;;;;5091660;28;20047;-34
2023/10/28 05:05:01;;;;;;;15.95;6.35;;;9.50;99.90;;;;;;5092250;28;20043;-34
2023/10/28 05:07:27;;;;;;;13.07;5.88;;;9.50;99.90;;;;;;5091195;28;20562;-34
2023/10/28 05:09:53;;;;;;;13.50;6.15;;;9.50;99.90;;;;;;5091768;28;20095;-35
2023/10/28 05:12:18;;;;;;;10.68;5.30;;;9.50;99.90;;;;;;5086077;28;20097;-36
2023/10/28 05:14:47;;;;;;;13.00;5.85;;;9.60;99.90;;;;;;5089357;28;20132;-36
2023/10/28 05:17:13;;;;;;;12.57;5.65;;;9.60;99.90;;;;;;5084066;28;20082;-35
2023/10/28 05:19:39;;;;;;;16.95;5.65;;;9.60;99.90;;;;;;5085994;28;20059;-35
2023/10/28 05:22:04;;;;;;;12.98;6.32;;;9.60;99.90;;;;;;5090748;28;20047;-35
2023/10/28 05:24:30;;;;;;;12.60;5.35;;;9.60;99.90;;;;;;5086039;28;20068;-36
2023/10/28 05:26:57;;;;;;;14.07;6.25;;;9.60;99.90;;;;;;5086369;28;20048;-35
2023/10/28 05:29:23;;;;;;;17.75;5.57;;;9.60;99.90;;;;;;5067874;28;20053;-35
2023/10/28 05:31:48;;;;;;;15.48;5.72;;;9.60;99.90;;;;;;5088338;28;20100;-35
2023/10/28 05:34:14;;;;;;;13.52;5.22;;;9.60;99.90;;;;;;5086628;28;20405;-34
2023/10/28 05:36:40;;;;;;;11.55;5.30;;;9.60;99.90;;;;;;5087382;28;20052;-35
2023/10/28 05:39:07;;;;;;;13.95;5.72;;;9.50;99.90;;;;;;5087252;28;20084;-35
2023/10/28 05:41:32;;;;;;;12.90;5.40;;;9.60;99.90;;;;;;5085916;28;20082;-35
2023/10/28 05:43:58;;;;;;;15.60;6.22;;;9.60;99.90;;;;;;5087773;28;20525;-35
2023/10/28 05:46:24;;;;;;;11.63;5.00;;;9.60;99.90;;;;;;5086459;28;20116;-35
2023/10/28 05:48:50;;;;;;;14.68;6.00;;;9.60;99.90;;;;;;5090820;28;20055;-35
2023/10/28 05:51:16;;;;;;;8.10;4.85;;;9.60;99.90;;;;;;5087124;28;20056;-34
2023/10/28 05:53:42;;;;;;;13.85;5.22;;;9.60;99.90;;;;;;5087974;28;20047;-35
2023/10/28 05:56:07;;;;;;;11.43;4.60;;;9.60;99.90;;;;;;5091557;28;20186;-35
2023/10/28 05:58:33;;;;;;;14.68;4.72;;;9.60;99.90;;;;;;5088821;28;20059;-35
2023/10/28 06:00:59;;;;;;;11.90;4.60;;;9.60;99.90;;;;;;5085353;28;20535;-35
2023/10/28 06:03:26;;;;;;;9.55;4.60;;;9.60;99.90;;;;;;5089908;28;20148;-35
2023/10/28 06:05:52;;;;;;;9.07;4.70;;;9.60;99.90;;;;;;5086891;28;20079;-35
2023/10/28 06:08:18;;;;;;;9.90;4.47;;;9.60;99.90;;;;;;5082383;28;20056;-34
2023/10/28 06:10:53;;;;;;;12.30;4.35;;;9.60;99.90;;;;;;5086413;28;20040;-35
2023/10/28 06:13:18;;;;;;;12.93;4.07;;;9.60;99.90;;;;;;5090219;28;20417;-35
2023/10/28 06:15:44;;;;;;;10.88;4.38;;;9.50;99.90;;;;;;5085363;28;20044;-35
2023/10/28 06:18:11;;;;;;;7.97;3.70;;;9.50;99.90;;;;;;5090686;28;20133;-35
2023/10/28 06:20:37;;;;;;;10.68;4.32;;;9.50;99.90;;;;;;5088515;28;20516;-35
2023/10/28 06:23:06;;;;;;;9.68;4.82;;;9.50;99.90;;;;;;5085617;28;20068;-35
2023/10/28 06:25:34;;;;;;;6.35;3.20;;;9.50;99.90;;;;;;5070009;28;20516;-35
2023/10/28 06:28:01;;;;;;;7.45;3.08;;;9.40;99.90;;;;;;5063061;28;20063;-35
2023/10/28 06:30:26;;;;;;;10.55;3.97;;;9.40;99.90;;;;;;5069646;28;20052;-34
2023/10/28 06:32:52;;;;;;;12.18;3.95;;;9.40;99.90;;;;;;5070119;28;20055;-35
2023/10/28 06:35:18;;;;;;;9.57;3.55;;;9.40;99.90;;;;;;5069427;28;20523;-34
2023/10/28 06:37:44;;;;;;;10.15;3.75;;;9.40;99.90;;;;;;5068752;28;20051;-35
2023/10/28 06:40:10;;;;;;;12.38;4.50;;;9.50;99.90;;;;;;5069920;28;20049;-35
2023/10/28 06:42:37;;;;;;;6.82;3.05;;;9.50;99.90;;;;;;5069226;28;20052;-35
2023/10/28 06:45:05;;;;;;;14.95;5.30;;;9.50;99.90;;;;;;5069541;28;20048;-35
2023/10/28 06:47:32;;;;;;;7.07;3.25;;;9.50;99.90;;;;;;5051363;28;20110;-34
2023/10/28 06:49:59;;;;;;;11.73;3.58;;;9.50;99.90;;;;;;5069878;28;20410;-34
2023/10/28 06:52:25;;;;;;;12.25;3.03;;;9.50;99.90;;;;;;5069258;28;20049;-34
2023/10/28 06:54:51;;;;;;;8.50;3.40;;;9.50;99.90;;;;;;5069809;28;20053;-34
2023/10/28 06:57:17;;;;;;;7.47;3.08;;;9.50;99.90;;;;;;5069961;28;20395;-35
2023/10/28 06:59:42;;;;;;;5.18;2.75;;;9.40;99.90;;;;;;5068935;28;20090;-35
2023/10/28 07:02:08;;;;;;;5.80;3.40;;;9.40;99.90;;;;;;5048912;28;20083;-35
2023/10/28 07:04:34;;;;;;;9.75;3.40;;;9.40;99.90;;;;;;5069014;28;20048;-35
2023/10/28 07:07:00;;;;;;;8.77;3.83;;;9.40;99.90;;;;;;5069377;28;20087;-35
2023/10/28 07:09:26;;;;;;;8.07;2.80;;;9.40;99.90;;;;;;5068666;28;20056;-35
2023/10/28 07:11:53;;;;;;;7.57;2.60;;;9.40;99.90;;;;;;5068867;28;20106;-35
2023/10/28 07:14:18;;;;;;;6.93;2.92;;;9.40;99.90;;;;;;5069386;28;20048;-36
2023/10/28 07:16:44;;;;;;;8.60;3.00;;;9.40;99.90;;;;;;5065666;28;20050;-35
2023/10/28 07:19:12;;;;;;;31.98;3.88;;;9.40;99.90;;;;;;5068564;28;20063;-35
2023/10/28 07:21:37;;;;;;;7.03;2.97;;;9.50;99.90;;;;;;5068633;28;20125;-35
2023/10/28 07:24:09;;;;;;;8.27;3.22;;;9.50;99.90;;;;;;5068997;28;20502;-35
2023/10/28 07:26:35;;;;;;;10.88;3.00;;;9.60;99.90;;;;;;5061460;28;20053;-36
2023/10/28 07:29:00;;;;;;;7.65;2.60;;;9.60;99.90;;;;;;5051044;28;20213;-36
2023/10/28 07:31:26;;;;;;;6.22;2.60;;;9.60;99.90;;;;;;5068543;28;20513;-34
2023/10/28 07:33:55;;;;;;;7.00;2.38;;;9.70;99.90;;;;;;5068751;28;20088;-34
2023/10/28 07:36:22;;;;;;;4.55;2.45;;;9.70;99.90;;;;;;5069043;28;20065;-35
2023/10/28 07:38:48;;;;;;;5.95;2.47;;;9.70;99.90;;;;;;5068605;28;20416;-34
2023/10/28 07:41:14;;;;;;;11.07;3.13;;;9.80;99.90;;;;;;5068497;28;20045;-34
2023/10/28 07:43:39;;;;;;;7.38;2.80;;;9.80;99.90;;;;;;5068369;28;20482;-34
2023/10/28 07:46:05;;;;;;;6.18;2.38;;;9.90;99.90;;;;;;5068849;28;20052;-34
2023/10/28 07:48:31;;;;;;;9.82;3.10;;;9.90;99.90;;;;;;5067768;28;20144;-33
2023/10/28 07:50:57;;;;;;;5.38;2.50;;;10.00;99.90;;;;;;5049710;28;20433;-34
2023/10/28 07:53:22;;;;;;;6.85;2.42;;;10.00;99.90;;;;;;5050889;28;20089;-34
2023/10/28 07:55:48;;;;;;;7.75;2.28;;;10.00;99.90;;;;;;5068485;28;20053;-34
2023/10/28 07:58:14;;;;;;;6.63;2.55;;;10.10;99.90;;;;;;5069157;28;20064;-34
2023/10/28 08:00:39;;;;;;;4.78;2.22;;;10.10;99.90;;;;;;5068130;28;20127;-35
2023/10/28 08:03:05;;;;;;;7.40;2.97;;;10.20;99.90;;;;;;5069156;28;20045;-34
2023/10/28 08:05:31;;;;;;;4.93;2.22;;;10.30;99.90;;;;;;5067726;28;20040;-34
2023/10/28 08:07:56;;;;;;;4.68;2.13;;;10.30;99.90;;;;;;5069247;28;20130;-34
2023/10/28 08:10:22;;;;;;;4.63;2.35;;;10.40;99.90;;;;;;5068943;28;20140;-34
2023/10/28 08:12:52;;;;;;;5.57;2.22;;;10.40;99.90;;;;;;5067848;28;20478;-34
2023/10/28 08:15:23;;;;;;;5.80;2.40;;;10.40;99.90;;;;;;5068401;28;20083;-34
2023/10/28 08:17:50;;;;;;;8.60;2.60;;;10.40;99.90;;;;;;5067695;28;20060;-34
2023/10/28 08:20:17;;;;;;;5.55;1.92;;;10.40;99.90;;;;;;5068145;28;20176;-34
2023/10/28 08:22:44;;;;;;;6.32;2.30;;;10.50;99.90;;;;;;5066912;28;20110;-34
2023/10/28 08:25:15;;;;;;;6.10;2.78;;;10.50;99.90;;;;;;5077488;28;20413;-34
2023/10/28 08:27:42;;;;;;;5.15;1.80;;;10.50;99.90;;;;;;5087949;28;20044;-34
2023/10/28 08:30:08;;;;;;;3.75;2.08;;;10.50;99.90;;;;;;5088674;28;20051;-34
2023/10/28 08:32:34;;;;;;;4.63;1.90;;;10.60;99.90;;;;;;5087984;28;20490;-34
2023/10/28 08:35:00;;;;;;;7.65;1.98;;;10.70;99.90;;;;;;5088424;28;20043;-34
2023/10/28 08:37:25;;;;;;;4.82;2.10;;;10.70;99.90;;;;;;5088775;28;20067;-34
2023/10/28 08:39:53;;;;;;;4.38;2.00;;;10.70;99.90;;;;;;5087715;28;20063;-34
2023/10/28 08:42:19;;;;;;;4.75;1.83;;;10.80;99.90;;;;;;5088819;28;20047;-34
2023/10/28 08:44:45;;;;;;;5.75;2.50;;;10.90;99.90;;;;;;5087601;28;20040;-35
2023/10/28 08:47:11;;;;;;;4.20;1.70;;;10.90;99.90;;;;;;5088432;28;20157;-35
2023/10/28 08:49:42;;;;;;;4.60;1.88;;;11.00;99.90;;;;;;5087794;28;20442;-35
2023/10/28 08:52:11;;;;;;;3.88;2.05;;;11.00;99.90;;;;;;5088002;28;20068;-35
2023/10/28 08:54:38;;;;;;;4.22;1.50;;;11.10;99.90;;;;;;5087715;28;20055;-35
2023/10/28 08:57:05;;;;;;;5.43;2.40;;;11.10;99.90;;;;;;5088176;28;20056;-35
2023/10/28 08:59:31;;;;;;;7.03;1.90;;;11.20;99.90;;;;;;5088226;28;20082;-35
2023/10/28 09:01:57;;;;;;;7.22;1.73;;;11.30;99.90;;;;;;5088924;28;20060;-35
2023/10/28 09:04:23;;;;;;;6.55;2.53;;;11.30;99.90;;;;;;5091931;28;20070;-35
2023/10/28 09:06:52;;;;;;;5.95;2.08;;;11.30;99.90;;;;;;5091314;28;20048;-35
2023/10/28 09:09:21;;;;;;;3.92;1.75;;;11.30;99.90;;;;;;5066450;28;20059;-35
2023/10/28 09:11:48;;;;;;;6.28;1.88;;;11.30;99.90;;;;;;5090516;28;20048;-35
2023/10/28 09:14:13;;;;;;;6.03;1.50;;;11.40;99.90;;;;;;5091718;28;20044;-35
2023/10/28 09:16:39;;;;;;;7.65;2.00;;;11.40;99.90;;;;;;5089670;28;20551;-42
2023/10/28 09:19:19;;;;;;;4.18;2.13;;;11.40;99.90;;;;;;5072391;28;20052;-35
2023/10/28 09:21:49;;;;;;;6.10;2.10;;;11.40;99.90;;;;;;5091048;28;20493;-35
2023/10/28 09:24:18;;;;;;;7.20;2.10;;;11.40;99.90;;;;;;5091272;28;20082;-35
2023/10/28 09:26:46;;;;;;;4.82;1.92;;;11.40;99.90;;;;;;5090825;28;20113;-35
2023/10/28 09:29:25;;;;;;;7.53;2.22;;;11.40;99.90;;;;;;5088751;28;20052;-34
2023/10/28 09:31:51;;;;;;;7.03;2.22;;;11.40;99.90;;;;;;5085308;28;20537;-35
2023/10/28 09:34:16;;;;;;;4.82;1.60;;;11.40;99.90;;;;;;5091208;28;20147;-35
2023/10/28 09:36:42;;;;;;;4.05;1.63;;;11.40;99.90;;;;;;5090730;28;20109;-35
2023/10/28 09:39:12;;;;;;;3.78;1.70;;;11.40;99.90;;;;;;5091212;28;20135;-35
2023/10/28 09:41:39;;;;;;;5.47;2.10;;;11.40;99.90;;;;;;5086122;28;20520;-35
2023/10/28 09:44:07;;;;;;;4.13;1.60;;;11.40;99.90;;;;;;5079956;28;20123;-35
2023/10/28 09:46:36;;;;;;;4.10;1.38;;;11.40;99.90;;;;;;5085819;28;21098;-34
2023/10/28 09:49:04;;;;;;;7.60;1.55;;;11.40;99.90;;;;;;5090750;28;20501;-34
2023/10/28 09:51:30;;;;;;;5.53;1.70;;;11.50;99.90;;;;;;5076898;28;20082;-34
2023/10/28 09:54:05;;;;;;;6.57;1.75;;;11.50;99.90;;;;;;5086556;28;20412;-35
2023/10/28 09:56:37;;;;;;;3.88;1.58;;;11.60;99.90;;;;;;5090612;28;20052;-35
2023/10/28 09:59:12;;;;;;;6.63;1.58;;;11.60;99.90;;;;;;5090743;28;20052;-35
2023/10/28 10:01:48;;;;;;;3.70;1.38;;;11.70;99.90;;;;;;5090054;28;20051;-34
2023/10/28 10:04:49;;;;;;;4.43;2.28;;;11.80;99.90;;;;;;5090656;28;20467;-35
2023/10/28 10:07:16;;;;;;;7.05;1.90;;;11.90;99.90;;;;;;5084613;28;20551;-35
2023/10/28 10:09:48;;;;;;;8.15;2.08;;;11.90;99.90;;;;;;5090743;28;20052;-34
2023/10/28 10:12:16;;;;;;;4.72;2.53;;;12.00;99.90;;;;;;5089616;28;20421;-35
2023/10/28 10:14:47;;;;;;;6.00;1.50;;;12.10;99.90;;;;;;5088996;28;20056;-34
2023/10/28 10:17:27;;;;;;;8.80;2.38;;;12.20;99.90;;;;;;5070936;28;20139;-35
2023/10/28 10:19:53;;;;;;;3.97;1.30;;;12.30;99.90;;;;;;5084072;28;20052;-35
2023/10/28 10:22:30;;;;;;;4.70;1.70;;;12.30;99.90;;;;;;5090312;28;20408;-34
2023/10/28 10:24:56;;;;;;;3.85;1.20;;;12.40;99.90;;;;;;5082946;28;20052;-35
2023/10/28 10:27:35;;;;;;;5.53;1.48;;;12.40;99.90;;;;;;5069872;28;20057;-34
2023/10/28 10:30:06;;;;;;;4.97;1.95;;;12.50;99.90;;;;;;5054803;28;20514;-34
2023/10/28 10:32:50;;;;;;;4.03;1.30;;;12.60;99.90;;;;;;5068536;28;20055;-34
2023/10/28 10:35:30;;;;;;;3.97;1.92;;;12.70;99.90;;;;;;5063203;28;20064;-34
2023/10/28 10:38:07;;;;;;;6.35;2.13;;;12.70;99.90;;;;;;5069057;28;20558;-34
2023/10/28 10:40:53;;;;;;;5.03;1.63;;;12.80;99.90;;;;;;5065027;28;20087;-34
2023/10/28 10:43:20;;;;;;;5.95;1.73;;;12.70;99.90;;;;;;5042320;28;20067;-34
2023/10/28 10:45:47;;;;;;;2.00;0.98;;;12.70;99.90;;;;;;5069421;28;20786;-34
2023/10/28 10:48:13;;;;;;;3.03;1.27;;;12.60;99.90;;;;;;5067490;28;20121;-34
2023/10/28 10:50:40;;;;;;;6.13;1.60;;;12.60;99.90;;;;;;5061492;28;20053;-34
2023/10/28 10:53:06;;;;;;;5.43;1.52;;;12.50;99.90;;;;;;5067464;28;20121;-34
2023/10/28 10:55:32;;;;;;;4.53;1.30;;;12.50;99.90;;;;;;5068265;28;20056;-35
2023/10/28 10:57:58;;;;;;;4.18;1.20;;;12.40;99.90;;;;;;5069265;28;20055;-35
2023/10/28 11:00:25;;;;;;;3.88;1.17;;;12.40;99.90;;;;;;5061402;28;20049;-35
2023/10/28 11:02:50;;;;;;;4.75;1.55;;;12.40;99.90;;;;;;5068484;28;20127;-34
2023/10/28 11:05:17;;;;;;;4.53;1.73;;;12.40;99.90;;;;;;5050951;28;20187;-34
2023/10/28 11:07:45;;;;;;;15.57;6.25;;;12.40;99.90;;;;;;5061505;28;20045;-34
2023/10/28 11:10:11;;;;;;;3.85;1.38;;;12.40;99.90;;;;;;5062358;28;20063;-34
2023/10/28 11:12:37;;;;;;;5.07;1.58;;;12.50;99.90;;;;;;5065783;28;20053;-34
2023/10/28 11:15:04;;;;;;;7.50;1.40;;;12.50;99.90;;;;;;5049946;28;20060;-33
2023/10/28 11:17:30;;;;;;;5.35;1.55;;;12.50;99.90;;;;;;5063610;28;20056;-33
2023/10/28 11:19:58;;;;;;;7.10;1.42;;;12.60;99.90;;;;;;5068681;28;20525;-34
2023/10/28 11:22:25;;;;;;;5.13;1.88;;;12.60;99.90;;;;;;5065665;28;20520;-33
2023/10/28 11:25:04;;;;;;;5.50;1.67;;;12.70;99.90;;;;;;5070351;28;20043;-34
2023/10/28 11:27:30;;;;;;;2.75;1.10;;;12.70;99.90;;;;;;5088469;28;20052;-33
2023/10/28 11:29:59;;;;;;;3.00;1.20;;;12.80;99.90;;;;;;5053470;28;20127;-33
2023/10/28 11:32:28;;;;;;;2.53;1.15;;;12.90;99.90;;;;;;5080608;28;20046;-33
2023/10/28 11:34:56;;;;;;;6.28;1.08;;;12.90;99.90;;;;;;5088837;28;20139;-34
2023/10/28 11:37:23;;;;;;;4.45;1.20;;;13.10;99.90;;;;;;5088996;28;20574;-34
2023/10/28 11:39:48;;;;;;;3.63;1.10;;;13.10;99.90;;;;;;5089237;28;20055;-34
2023/10/28 11:42:15;;;;;;;3.58;1.10;;;13.20;99.90;;;;;;5080830;28;20051;-34
2023/10/28 11:44:51;;;;;;;3.70;1.33;;;13.10;99.90;;;;;;5073055;28;20509;-34
2023/10/28 11:47:19;;;;;;;4.82;1.42;;;13.10;99.90;;;;;;5078130;28;20048;-34
2023/10/28 11:49:48;;;;;;;7.75;0.98;;;13.10;99.90;;;;;;5081747;28;20121;-34
2023/10/28 11:52:13;;;;;;;3.72;1.13;;;13.00;99.90;;;;;;5066141;28;20052;-34
2023/10/28 11:54:40;;;;;;;4.53;1.45;;;13.10;99.90;;;;;;5079840;28;20421;-34
2023/10/28 11:57:06;;;;;;;3.63;1.13;;;13.20;99.90;;;;;;5071013;28;20055;-33
2023/10/28 11:59:32;;;;;;;2.00;0.85;;;13.30;99.90;;;;;;5088130;28;20058;-34
2023/10/28 12:01:58;;;;;;;4.05;1.17;;;13.40;99.90;;;;;;5086581;28;20417;-34
2023/10/28 12:04:25;;;;;;;3.90;1.55;;;13.40;99.90;;;;;;5081205;28;20131;-33
2023/10/28 12:06:51;;;;;;;3.08;0.90;;;13.50;99.90;;;;;;5080519;28;20059;-34
2023/10/28 12:09:17;;;;;;;5.38;1.00;;;13.50;99.90;;;;;;5082598;28;20044;-34
2023/10/28 12:11:43;;;;;;;4.00;1.08;;;13.50;99.90;;;;;;5071260;28;20052;-34
2023/10/28 12:14:10;;;;;;;5.28;1.00;;;13.60;99.90;;;;;;5086305;28;20044;-34
2023/10/28 12:16:39;;;;;;;3.05;1.02;;;13.70;99.90;;;;;;5086860;28;20054;-35
2023/10/28 12:19:06;;;;;;;2.78;0.90;;;13.70;99.90;;;;;;5088443;28;20054;-35
2023/10/28 12:21:35;;;;;;;5.15;1.88;;;13.70;99.90;;;;;;5069287;28;20516;-34
2023/10/28 12:24:05;;;;;;;4.55;1.00;;;13.70;99.90;;;;;;5067733;28;20056;-35
2023/10/28 12:26:31;;;;;;;3.05;0.80;;;13.70;99.90;;;;;;5066786;28;20068;-34
2023/10/28 12:28:57;;;;;;;7.20;1.30;;;13.90;99.90;;;;;;5067925;28;20471;-34
2023/10/28 12:31:23;;;;;;;5.00;1.00;;;14.20;99.90;;;;;;5051452;28;20064;-34
2023/10/28 12:33:50;;;;;;;3.97;1.38;;;14.70;99.90;;;;;;5063052;28;20048;-35
2023/10/28 12:36:20;;;;;;;3.40;0.98;;;14.90;99.90;;;;;;5066990;28;20036;-34
2023/10/28 12:38:45;;;;;;;5.93;1.30;;;15.10;99.90;;;;;;5071895;28;20462;-35
2023/10/28 12:41:15;;;;;;;3.35;1.13;;;15.00;99.90;;;;;;5071327;28;20072;-34
2023/10/28 12:43:41;;;;;;;6.35;1.23;;;14.90;99.90;;;;;;5072186;28;20574;-35
2023/10/28 12:46:07;;;;;;;5.20;0.80;;;14.90;99.90;;;;;;5070800;28;20125;-35
2023/10/28 12:48:36;;;;;;;3.13;1.00;;;14.80;99.90;;;;;;5046837;28;20092;-34